createdAt,value
2018-03-25T00:01:34.907Z,19.73
2018-03-25T00:04:03.311Z,20.58
2018-03-25T00:06:31.488Z,21.30
2018-03-25T00:08:59.758Z,19.42
2018-03-25T00:11:27.221Z,20.75
2018-03-25T00:13:56.159Z,20.35
2018-03-25T00:16:24.280Z,21.20
2018-03-25T00:18:52.170Z,20.92
2018-03-25T00:21:20.735Z,20.17
2018-03-25T00:23:48.199Z,20.05
2018-03-25T00:26:16.429Z,18.65
2018-03-25T00:28:43.898Z,19.62
2018-03-25T00:31:11.358Z,19.75
2018-03-25T00:33:38.826Z,20.15
2018-03-25T00:36:06.298Z,20.20
2018-03-25T00:38:34.919Z,18.20
2018-03-25T00:41:03.151Z,17.92
2018-03-25T00:43:31.943Z,19.33
2018-03-25T00:45:59.512Z,19.25
2018-03-25T00:48:27.130Z,18.15
2018-03-25T00:50:54.579Z,17.08
2018-03-25T00:53:23.142Z,16.67
2018-03-25T00:55:51.378Z,18.37
2018-03-25T00:58:18.957Z,17.98
2018-03-25T01:00:46.415Z,18.55
2018-03-25T01:03:13.921Z,18.48
2018-03-25T01:05:41.682Z,19.52
2018-03-25T01:08:09.198Z,19.62
2018-03-25T01:10:36.665Z,18.92
2018-03-25T01:13:04.894Z,17.35
2018-03-25T01:15:44.326Z,18.17
2018-03-25T01:18:11.790Z,19.58
2018-03-25T01:20:39.250Z,18.00
2018-03-25T01:23:06.710Z,18.58
2018-03-25T01:25:34.603Z,19.92
2018-03-25T01:28:02.169Z,17.90
2018-03-25T01:30:30.339Z,19.00
2018-03-25T01:32:57.814Z,17.23
2018-03-25T01:35:26.136Z,17.02
2018-03-25T01:37:53.598Z,17.87
2018-03-25T01:40:21.701Z,17.23
2018-03-25T01:42:49.170Z,18.30
2018-03-25T01:45:16.637Z,18.42
2018-03-25T01:47:44.094Z,16.65
2018-03-25T01:50:12.323Z,16.73
2018-03-25T01:52:39.838Z,17.62
2018-03-25T01:55:08.055Z,17.17
2018-03-25T01:57:36.341Z,16.75
2018-03-25T02:00:03.906Z,17.70
2018-03-25T02:02:31.395Z,16.10
2018-03-25T02:04:59.458Z,16.73
2018-03-25T02:07:27.534Z,15.70
2018-03-25T02:09:55.197Z,17.00
2018-03-25T02:12:23.171Z,16.42
2018-03-25T02:14:51.363Z,16.60
2018-03-25T02:17:19.590Z,16.25
2018-03-25T02:19:47.054Z,16.52
2018-03-25T02:22:14.530Z,16.40
2018-03-25T02:24:41.990Z,16.50
2018-03-25T02:27:09.549Z,15.40
2018-03-25T02:29:37.723Z,16.35
2018-03-25T02:32:05.622Z,15.50
2018-03-25T02:34:34.183Z,14.48
2018-03-25T02:37:01.643Z,15.77
2018-03-25T02:39:30.055Z,16.67
2018-03-25T02:41:57.484Z,15.95
2018-03-25T02:44:25.036Z,15.63
2018-03-25T02:46:52.498Z,14.50
2018-03-25T02:49:19.957Z,17.48
2018-03-25T02:51:48.027Z,15.73
2018-03-25T02:54:15.586Z,16.17
2018-03-25T02:56:43.699Z,15.02
2018-03-25T02:59:11.626Z,16.35
2018-03-25T03:01:39.147Z,14.43
2018-03-25T03:04:06.651Z,15.50
2018-03-25T03:06:34.111Z,15.25
2018-03-25T03:09:03.146Z,15.45
2018-03-25T03:11:31.195Z,14.10
2018-03-25T03:13:59.429Z,15.73
2018-03-25T03:16:27.989Z,14.30
2018-03-25T03:18:55.494Z,12.55
2018-03-25T03:21:24.283Z,14.70
2018-03-25T03:23:51.841Z,13.40
2018-03-25T03:26:20.061Z,14.57
2018-03-25T03:28:47.986Z,13.85
2018-03-25T03:31:15.852Z,14.25
2018-03-25T03:33:43.934Z,14.52
2018-03-25T03:36:11.389Z,13.45
2018-03-25T03:38:38.850Z,13.98
2018-03-25T03:41:06.307Z,13.43
2018-03-25T03:43:33.859Z,13.88
2018-03-25T03:46:01.319Z,13.98
2018-03-25T03:48:29.694Z,13.50
2018-03-25T03:50:57.782Z,13.88
2018-03-25T03:53:26.051Z,14.40
2018-03-25T03:55:54.010Z,14.35
2018-03-25T03:58:21.578Z,13.50
2018-03-25T04:00:49.271Z,13.73
2018-03-25T04:03:17.554Z,13.27
2018-03-25T04:05:46.364Z,14.13
2018-03-25T04:08:14.563Z,13.50
2018-03-25T04:10:42.034Z,12.90
2018-03-25T04:13:09.514Z,13.25
2018-03-25T04:15:37.733Z,12.90
2018-03-25T04:18:05.235Z,12.00
2018-03-25T04:20:32.794Z,12.88
2018-03-25T04:23:00.250Z,13.07
2018-03-25T04:25:27.714Z,13.32
2018-03-25T04:27:55.782Z,13.30
2018-03-25T04:30:23.933Z,12.07
2018-03-25T04:32:52.130Z,12.02
2018-03-25T04:35:20.406Z,12.77
2018-03-25T04:37:49.438Z,12.10
2018-03-25T04:40:18.288Z,13.57
2018-03-25T04:42:45.815Z,11.50
2018-03-25T04:45:13.446Z,13.10
2018-03-25T04:47:42.193Z,12.98
2018-03-25T04:50:09.663Z,12.75
2018-03-25T04:52:37.942Z,12.48
2018-03-25T04:55:06.174Z,12.60
2018-03-25T04:57:34.348Z,13.10
2018-03-25T05:00:02.506Z,13.18
2018-03-25T05:02:31.107Z,12.13
2018-03-25T05:04:58.572Z,12.18
2018-03-25T05:07:26.741Z,12.90
2018-03-25T05:09:54.998Z,12.15
2018-03-25T05:12:22.457Z,12.43
2018-03-25T05:14:50.359Z,13.02
2018-03-25T05:17:17.849Z,13.43
2018-03-25T05:19:45.298Z,12.75
2018-03-25T05:22:12.762Z,12.13
2018-03-25T05:24:40.860Z,11.88
2018-03-25T05:27:09.090Z,12.63
2018-03-25T05:29:37.414Z,12.80
2018-03-25T05:32:05.646Z,13.48
2018-03-25T05:34:33.106Z,12.57
2018-03-25T05:37:00.674Z,13.07
2018-03-25T05:39:28.625Z,12.48
2018-03-25T05:41:56.634Z,13.32
2018-03-25T05:44:24.107Z,10.95
2018-03-25T05:46:53.111Z,11.40
2018-03-25T05:49:21.334Z,11.12
2018-03-25T05:51:48.915Z,10.60
2018-03-25T05:54:16.690Z,10.65
2018-03-25T05:56:44.907Z,10.63
2018-03-25T05:59:12.411Z,9.00
2018-03-25T06:01:40.174Z,9.65
2018-03-25T06:04:08.250Z,9.63
2018-03-25T06:06:35.706Z,9.95
2018-03-25T06:09:03.158Z,9.95
2018-03-25T06:11:30.622Z,9.93
2018-03-25T06:13:58.931Z,10.20
2018-03-25T06:16:27.146Z,9.15
2018-03-25T06:18:54.630Z,9.43
2018-03-25T06:21:22.903Z,8.75
2018-03-25T06:23:51.126Z,8.73
2018-03-25T06:26:18.655Z,7.87
2018-03-25T06:28:46.626Z,9.05
2018-03-25T06:31:14.198Z,8.45
2018-03-25T06:33:42.574Z,8.25
2018-03-25T06:36:10.930Z,7.85
2018-03-25T06:38:39.478Z,8.27
2018-03-25T06:41:07.278Z,8.35
2018-03-25T06:43:35.161Z,7.47
2018-03-25T06:46:02.706Z,10.40
2018-03-25T06:48:30.171Z,9.00
2018-03-25T06:50:59.111Z,8.02
2018-03-25T06:53:27.293Z,7.10
2018-03-25T06:55:55.468Z,7.70
2018-03-25T06:58:22.931Z,8.32
2018-03-25T07:00:50.459Z,8.67
2018-03-25T07:03:18.679Z,8.23
2018-03-25T07:05:46.448Z,7.93
2018-03-25T07:08:14.752Z,7.93
2018-03-25T07:10:42.800Z,7.20
2018-03-25T07:13:10.462Z,7.20
2018-03-25T07:15:37.926Z,7.00
2018-03-25T07:18:05.378Z,6.93
2018-03-25T07:20:32.842Z,6.73
2018-03-25T07:23:00.921Z,6.70
2018-03-25T07:25:28.449Z,6.47
2018-03-25T07:27:56.354Z,5.83
2018-03-25T07:30:24.588Z,6.80
2018-03-25T07:32:52.090Z,6.30
2018-03-25T07:35:19.796Z,5.83
2018-03-25T07:37:48.254Z,6.33
2018-03-25T07:40:16.618Z,5.93
2018-03-25T07:42:45.035Z,6.20
2018-03-25T07:45:13.066Z,6.20
2018-03-25T07:47:41.032Z,5.77
2018-03-25T07:50:08.747Z,5.80
2018-03-25T07:52:36.162Z,5.57
2018-03-25T07:55:03.610Z,5.40
2018-03-25T07:57:31.060Z,5.53
2018-03-25T07:59:58.997Z,7.47
2018-03-25T08:02:26.950Z,7.90
2018-03-25T08:04:54.945Z,9.10
2018-03-25T08:07:23.015Z,7.57
2018-03-25T08:09:50.890Z,6.33
2018-03-25T08:12:18.758Z,7.20
2018-03-25T08:14:46.248Z,7.03
2018-03-25T08:17:13.704Z,6.03
2018-03-25T08:19:41.171Z,6.43
2018-03-25T08:22:09.114Z,6.37
2018-03-25T08:24:36.928Z,5.97
2018-03-25T08:27:05.178Z,6.57
2018-03-25T08:29:33.466Z,6.73
2018-03-25T08:32:01.434Z,6.77
2018-03-25T08:34:29.192Z,6.10
2018-03-25T08:36:56.878Z,7.17
2018-03-25T08:39:24.515Z,6.27
2018-03-25T08:41:51.958Z,6.07
2018-03-25T08:44:19.554Z,6.23
2018-03-25T08:46:47.938Z,6.20
2018-03-25T08:49:16.303Z,6.73
2018-03-25T08:51:43.799Z,6.43
2018-03-25T08:54:11.753Z,6.57
2018-03-25T08:56:40.058Z,6.93
2018-03-25T08:59:08.622Z,6.90
2018-03-25T09:01:36.487Z,7.57
2018-03-25T09:04:04.726Z,7.40
2018-03-25T09:06:32.179Z,7.30
2018-03-25T09:08:59.908Z,8.30
2018-03-25T09:11:28.092Z,8.70
2018-03-25T09:13:55.542Z,8.53
2018-03-25T09:16:23.342Z,8.47
2018-03-25T09:18:50.809Z,8.57
2018-03-25T09:21:19.305Z,9.30
2018-03-25T09:23:46.750Z,9.33
2018-03-25T09:26:15.126Z,10.67
2018-03-25T09:28:42.695Z,10.73
2018-03-25T09:31:10.147Z,9.43
2018-03-25T09:33:37.614Z,8.87
2018-03-25T09:36:05.063Z,9.37
2018-03-25T09:38:32.582Z,8.93
2018-03-25T09:41:00.032Z,9.70
2018-03-25T09:43:27.492Z,10.17
2018-03-25T09:45:54.953Z,9.57
2018-03-25T09:48:22.513Z,9.47
2018-03-25T09:50:50.422Z,9.20
2018-03-25T09:53:19.544Z,9.70
2018-03-25T09:55:48.298Z,9.13
2018-03-25T09:58:15.767Z,9.33
2018-03-25T10:00:43.227Z,9.13
2018-03-25T10:03:16.378Z,8.37
2018-03-25T10:05:44.445Z,9.60
2018-03-25T10:08:13.606Z,9.13
2018-03-25T10:10:41.863Z,8.80
2018-03-25T10:13:09.707Z,8.90
2018-03-25T10:15:38.474Z,8.93
2018-03-25T10:18:06.630Z,8.97
2018-03-25T10:20:34.638Z,8.73
2018-03-25T10:23:02.618Z,9.60
2018-03-25T10:25:30.922Z,8.97
2018-03-25T10:27:58.837Z,10.27
2018-03-25T10:30:27.336Z,8.60
2018-03-25T10:32:56.059Z,9.10
2018-03-25T10:35:24.285Z,11.50
2018-03-25T10:37:52.665Z,10.33
2018-03-25T10:40:20.171Z,10.37
2018-03-25T10:42:47.633Z,10.83
2018-03-25T10:45:15.085Z,9.43
2018-03-25T10:47:42.634Z,10.03
2018-03-25T10:50:10.090Z,10.53
2018-03-25T10:52:37.918Z,10.87
2018-03-25T10:55:05.462Z,10.47
2018-03-25T10:57:32.916Z,9.93
2018-03-25T11:00:01.726Z,10.63
2018-03-25T11:02:29.223Z,10.83
2018-03-25T11:04:56.686Z,10.37
2018-03-25T11:07:24.946Z,10.60
2018-03-25T11:09:52.830Z,10.97
2018-03-25T11:12:20.614Z,10.70
2018-03-25T11:14:49.358Z,11.07
2018-03-25T11:17:16.817Z,9.97
2018-03-25T11:19:44.273Z,9.90
2018-03-25T11:22:11.734Z,9.50
2018-03-25T11:24:39.230Z,10.00
2018-03-25T11:27:07.292Z,8.77
2018-03-25T11:29:34.757Z,10.27
2018-03-25T11:32:02.304Z,9.97
2018-03-25T11:34:30.453Z,9.60
2018-03-25T11:36:57.906Z,9.93
2018-03-25T11:39:26.438Z,9.73
2018-03-25T11:41:55.377Z,9.03
2018-03-25T11:44:23.594Z,9.63
2018-03-25T11:46:51.054Z,9.17
2018-03-25T11:49:18.510Z,8.97
2018-03-25T11:51:46.023Z,9.60
2018-03-25T11:54:14.452Z,10.40
2018-03-25T11:56:42.622Z,9.17
2018-03-25T11:59:10.943Z,9.40
2018-03-25T12:01:38.410Z,10.03
2018-03-25T12:04:06.035Z,9.80
2018-03-25T12:06:33.481Z,9.47
2018-03-25T12:09:01.916Z,9.43
2018-03-25T12:11:29.674Z,9.20
2018-03-25T12:13:57.818Z,10.77
2018-03-25T12:16:26.119Z,9.27
2018-03-25T12:18:53.536Z,9.23
2018-03-25T12:21:23.273Z,9.70
2018-03-25T12:23:52.123Z,9.33
2018-03-25T12:26:21.083Z,9.63
2018-03-25T12:28:48.523Z,9.93
2018-03-25T12:31:15.986Z,10.10
2018-03-25T12:33:43.788Z,9.03
2018-03-25T12:36:11.675Z,9.97
2018-03-25T12:38:39.963Z,9.03
2018-03-25T12:41:07.410Z,10.55
2018-03-25T12:43:34.898Z,8.90
2018-03-25T12:46:03.182Z,10.57
2018-03-25T12:48:30.642Z,9.60
2018-03-25T12:50:58.626Z,9.40
2018-03-25T12:53:27.615Z,8.93
2018-03-25T12:55:55.858Z,10.10
2018-03-25T12:58:23.822Z,9.57
2018-03-25T13:00:51.332Z,9.10
2018-03-25T13:03:19.458Z,8.80
2018-03-25T13:05:46.913Z,9.33
2018-03-25T13:08:15.146Z,11.10
2018-03-25T13:10:42.611Z,10.93
2018-03-25T13:13:11.553Z,9.50
2018-03-25T13:15:39.802Z,9.93
2018-03-25T13:18:07.987Z,8.97
2018-03-25T13:20:36.215Z,9.57
2018-03-25T13:23:03.719Z,9.80
2018-03-25T13:25:31.182Z,10.23
2018-03-25T13:27:58.634Z,9.87
2018-03-25T13:30:26.114Z,10.43
2018-03-25T13:32:55.242Z,9.93
2018-03-25T13:35:22.712Z,10.20
2018-03-25T13:37:50.215Z,10.00
2018-03-25T13:40:17.662Z,8.40
2018-03-25T13:42:45.667Z,10.27
2018-03-25T13:45:13.909Z,10.13
2018-03-25T13:47:41.366Z,9.97
2018-03-25T13:50:08.821Z,11.00
2018-03-25T13:52:36.389Z,9.93
2018-03-25T13:55:03.843Z,15.67
2018-03-25T13:57:31.324Z,9.80
2018-03-25T13:59:58.783Z,9.93
2018-03-25T14:02:27.005Z,9.23
2018-03-25T14:04:54.483Z,10.00
2018-03-25T14:07:21.938Z,10.67
2018-03-25T14:09:49.810Z,10.53
2018-03-25T14:12:17.397Z,9.60
2018-03-25T14:14:44.850Z,8.90
2018-03-25T14:17:12.330Z,10.77
2018-03-25T14:19:40.558Z,9.73
2018-03-25T14:22:08.135Z,10.30
2018-03-25T14:24:35.922Z,9.07
2018-03-25T14:27:04.157Z,9.57
2018-03-25T14:29:31.738Z,8.53
2018-03-25T14:32:00.113Z,9.60
2018-03-25T14:34:27.573Z,8.80
2018-03-25T14:36:55.022Z,9.33
2018-03-25T14:39:22.490Z,9.40
2018-03-25T14:41:49.947Z,9.17
2018-03-25T14:44:20.373Z,9.23
2018-03-25T14:46:48.650Z,9.60
2018-03-25T14:49:16.214Z,9.83
2018-03-25T14:51:43.693Z,8.80
2018-03-25T14:54:11.138Z,7.77
2018-03-25T14:56:38.602Z,8.90
2018-03-25T14:59:07.604Z,9.77
2018-03-25T15:01:35.141Z,10.40
2018-03-25T15:04:02.726Z,9.33
2018-03-25T15:06:31.991Z,9.00
2018-03-25T15:08:59.455Z,10.30
2018-03-25T15:11:26.924Z,11.17
2018-03-25T15:13:54.386Z,9.70
2018-03-25T15:16:21.942Z,9.90
2018-03-25T15:18:49.707Z,8.77
2018-03-25T15:21:17.656Z,9.70
2018-03-25T15:23:45.750Z,9.13
2018-03-25T15:26:14.547Z,9.80
2018-03-25T15:28:42.718Z,9.40
2018-03-25T15:31:11.118Z,9.67
2018-03-25T15:33:39.572Z,9.77
2018-03-25T15:36:07.026Z,10.10
2018-03-25T15:38:34.803Z,12.53
2018-03-25T15:41:03.066Z,9.90
2018-03-25T15:43:30.564Z,10.37
2018-03-25T15:45:58.798Z,9.73
2018-03-25T15:48:26.817Z,9.70
2018-03-25T15:50:55.812Z,11.23
2018-03-25T15:53:23.280Z,10.83
2018-03-25T15:55:51.199Z,12.33
2018-03-25T15:58:19.274Z,10.33
2018-03-25T16:00:47.245Z,10.80
2018-03-25T16:03:14.719Z,11.60
2018-03-25T16:05:42.938Z,11.20
2018-03-25T16:08:10.638Z,11.50
2018-03-25T16:10:38.099Z,10.07
2018-03-25T16:13:06.166Z,10.60
2018-03-25T16:15:34.346Z,10.40
2018-03-25T16:18:01.807Z,11.37
2018-03-25T16:20:29.270Z,10.43
2018-03-25T16:22:58.047Z,13.13
2018-03-25T16:25:25.623Z,11.30
2018-03-25T16:27:53.770Z,23.93
2018-03-25T16:30:21.346Z,14.80
2018-03-25T16:32:48.808Z,11.80
2018-03-25T16:35:17.078Z,15.37
2018-03-25T16:37:45.354Z,12.97
2018-03-25T16:40:12.807Z,12.27
2018-03-25T16:42:40.286Z,14.03
2018-03-25T16:45:08.244Z,11.63
2018-03-25T16:47:35.822Z,12.60
2018-03-25T16:50:04.371Z,11.90
2018-03-25T16:52:31.848Z,12.37
2018-03-25T16:55:00.282Z,11.77
2018-03-25T16:57:28.628Z,11.70
2018-03-25T16:59:57.806Z,10.03
2018-03-25T17:02:29.063Z,12.97
2018-03-25T17:04:56.525Z,12.60
2018-03-25T17:07:24.298Z,13.53
2018-03-25T17:09:52.543Z,12.60
2018-03-25T17:12:20.505Z,13.80
2018-03-25T17:14:47.962Z,13.63
2018-03-25T17:17:16.066Z,13.50
2018-03-25T17:19:43.519Z,13.30
2018-03-25T17:22:11.978Z,14.50
2018-03-25T17:24:39.803Z,13.47
2018-03-25T17:27:07.931Z,13.37
2018-03-25T17:29:35.377Z,12.93
2018-03-25T17:32:02.839Z,16.23
2018-03-25T17:34:30.669Z,13.13
2018-03-25T17:36:58.507Z,14.50
2018-03-25T17:39:26.734Z,14.30
2018-03-25T17:41:54.209Z,15.23
2018-03-25T17:44:21.730Z,15.57
2018-03-25T17:46:50.207Z,15.30
2018-03-25T17:49:17.670Z,15.80
2018-03-25T17:51:46.026Z,15.30
2018-03-25T17:54:15.093Z,16.97
2018-03-25T17:56:43.366Z,15.73
2018-03-25T17:59:11.230Z,16.07
2018-03-25T18:01:39.511Z,15.63
2018-03-25T18:04:06.970Z,16.77
2018-03-25T18:06:34.431Z,16.40
2018-03-25T18:09:01.927Z,16.57
2018-03-25T18:11:29.433Z,16.43
2018-03-25T18:13:57.642Z,16.43
2018-03-25T18:16:25.894Z,16.57
2018-03-25T18:18:53.350Z,17.27
2018-03-25T18:21:20.806Z,17.03
2018-03-25T18:23:48.278Z,16.50
2018-03-25T18:26:16.503Z,17.27
2018-03-25T18:28:44.003Z,16.63
2018-03-25T18:31:11.462Z,16.77
2018-03-25T18:33:39.435Z,17.60
2018-03-25T18:36:06.906Z,17.80
2018-03-25T18:38:35.403Z,17.27
2018-03-25T18:41:03.642Z,17.30
2018-03-25T18:43:31.312Z,17.40
2018-03-25T18:45:58.783Z,18.43
2018-03-25T18:48:26.234Z,17.23
2018-03-25T18:50:53.711Z,19.07
2018-03-25T18:53:22.634Z,20.57
2018-03-25T18:55:50.664Z,17.33
2018-03-25T18:58:18.131Z,17.13
2018-03-25T19:00:46.839Z,17.50
2018-03-25T19:03:14.352Z,20.90
2018-03-25T19:05:41.810Z,16.90
2018-03-25T19:08:10.363Z,15.57
2018-03-25T19:10:37.810Z,13.63
2018-03-25T19:13:05.274Z,14.27
2018-03-25T19:15:33.910Z,13.40
2018-03-25T19:18:02.286Z,12.40
2018-03-25T19:20:29.754Z,12.17
2018-03-25T19:22:57.980Z,12.97
2018-03-25T19:25:25.447Z,13.40
2018-03-25T19:27:55.242Z,14.40
2018-03-25T19:30:22.712Z,14.17
2018-03-25T19:32:50.575Z,15.60
2018-03-25T19:35:18.741Z,12.63
2018-03-25T19:37:46.242Z,12.23
2018-03-25T19:40:14.317Z,10.60
2018-03-25T19:42:42.239Z,11.40
2018-03-25T19:45:11.370Z,11.90
2018-03-25T19:47:38.838Z,12.00
2018-03-25T19:50:07.380Z,12.37
2018-03-25T19:52:36.784Z,10.73
2018-03-25T19:55:04.239Z,12.70
2018-03-25T19:57:31.691Z,11.57
2018-03-25T20:00:00.238Z,10.40
2018-03-25T20:02:28.468Z,12.40
2018-03-25T20:04:55.970Z,10.53
2018-03-25T20:07:23.428Z,9.97
2018-03-25T20:09:51.369Z,8.60
2018-03-25T20:12:18.835Z,9.57
2018-03-25T20:14:46.288Z,9.23
2018-03-25T20:17:14.005Z,9.80
2018-03-25T20:19:41.473Z,10.90
2018-03-25T20:22:09.390Z,18.07
2018-03-25T20:24:37.062Z,20.40
2018-03-25T20:27:04.572Z,22.53
2018-03-25T20:29:32.073Z,12.13
2018-03-25T20:31:59.530Z,12.70
2018-03-25T20:34:27.097Z,12.73
2018-03-25T20:36:55.316Z,12.27
2018-03-25T20:39:23.061Z,11.07
2018-03-25T20:41:51.922Z,9.27
2018-03-25T20:44:20.822Z,9.47
2018-03-25T20:46:49.054Z,9.00
2018-03-25T20:49:16.508Z,8.23
2018-03-25T20:51:43.990Z,10.37
2018-03-25T20:54:12.195Z,8.33
2018-03-25T20:56:40.734Z,7.62
2018-03-25T20:59:08.190Z,7.80
2018-03-25T21:01:36.342Z,7.87
2018-03-25T21:04:03.882Z,8.50
2018-03-25T21:06:32.751Z,7.53
2018-03-25T21:09:00.971Z,8.93
2018-03-25T21:11:29.302Z,9.00
2018-03-25T21:13:58.047Z,8.70
2018-03-25T21:16:25.619Z,10.40
2018-03-25T21:18:53.069Z,8.70
2018-03-25T21:21:20.538Z,10.17
2018-03-25T21:23:48.014Z,8.98
2018-03-25T21:26:15.688Z,8.90
2018-03-25T21:28:43.154Z,8.77
2018-03-25T21:31:11.703Z,10.07
2018-03-25T21:33:39.195Z,9.52
2018-03-25T21:36:07.422Z,9.68
2018-03-25T21:38:35.782Z,10.38
2018-03-25T21:41:03.918Z,10.43
2018-03-25T21:43:33.098Z,11.18
2018-03-25T21:46:00.679Z,10.82
2018-03-25T21:48:28.894Z,10.38
2018-03-25T21:50:57.284Z,9.45
2018-03-25T21:53:25.703Z,9.20
2018-03-25T21:55:53.618Z,9.90
2018-03-25T21:58:21.500Z,10.35
2018-03-25T22:00:49.575Z,9.07
2018-03-25T22:03:17.083Z,9.68
2018-03-25T22:05:45.713Z,9.63
2018-03-25T22:08:13.231Z,10.85
2018-03-25T22:10:41.480Z,11.23
2018-03-25T22:13:08.938Z,10.02
2018-03-25T22:15:36.967Z,9.60
2018-03-25T22:18:04.838Z,10.77
2018-03-25T22:20:32.305Z,10.80
2018-03-25T22:22:59.767Z,10.55
2018-03-25T22:25:27.238Z,10.23
2018-03-25T22:27:54.702Z,9.90
2018-03-25T22:30:22.165Z,11.35
2018-03-25T22:32:50.743Z,11.50
2018-03-25T22:35:18.214Z,10.15
2018-03-25T22:37:45.692Z,10.13
2018-03-25T22:40:14.948Z,10.18
2018-03-25T22:42:43.067Z,10.05
2018-03-25T22:45:12.351Z,10.00
2018-03-25T22:47:41.008Z,10.55
2018-03-25T22:50:08.467Z,8.73
2018-03-25T22:52:35.922Z,10.15
2018-03-25T22:55:03.387Z,9.98
2018-03-25T22:57:30.862Z,9.77
2018-03-25T22:59:58.338Z,9.30
2018-03-25T23:02:26.561Z,9.63
2018-03-25T23:04:55.254Z,11.63
2018-03-25T23:07:23.311Z,10.00
2018-03-25T23:09:50.771Z,8.87
2018-03-25T23:12:18.243Z,9.23
2018-03-25T23:14:45.914Z,9.32
2018-03-25T23:17:13.382Z,9.20
2018-03-25T23:19:40.838Z,9.07
2018-03-25T23:22:08.326Z,8.27
2018-03-25T23:24:35.850Z,9.05
2018-03-25T23:27:04.126Z,8.85
2018-03-25T23:29:31.596Z,8.85
2018-03-25T23:32:00.064Z,10.35
2018-03-25T23:34:28.074Z,11.02
2018-03-25T23:36:55.542Z,10.13
2018-03-25T23:39:24.457Z,9.55
2018-03-25T23:41:52.414Z,10.55
2018-03-25T23:44:20.644Z,10.55
2018-03-25T23:46:48.133Z,10.02
2018-03-25T23:49:17.170Z,10.75
2018-03-25T23:51:44.691Z,11.45
2018-03-25T23:54:13.526Z,11.20
2018-03-25T23:56:40.993Z,10.95
2018-03-25T23:59:09.094Z,11.45
